Air Sicilia Virtual Airways - Route

Air Sicilia Virtual Airways - SIC037A

( IT ) LIRU - 00:00
Urbe Airport
ROMA ( )
plane_to ( IT ) LICJ - 00:00
Falcone–Borsellino Airport
PALERMO ( PMO )

AIRPORT NEAR NAVIGATION AIDS

Type Name Frequency
NDB Urbe 285 KHZ

METAR / TAF
LIRU 181450Z VRB03KT 030V150 9999 SCT040 22/21 Q1016

RUNWAY INFORMATION

Runway Runway length Runway width Runway elevation Runway displaced threshold Runway heading
16 3543 98 55 361 160
34 3543 98 55 820 340

AIRPORT FREQUENCIES

Type Name Frequency
GND GND 122.7 MHZ
TWR TWR 123.8 MHZ

AIRPORT NEAR NAVIGATION AIDS

Type Name Frequency
VOR-DME Palermo 112300 KHZ
NDB Palermo 356 KHZ
VOR-DME Raisi 113000 KHZ
NDB Raisi 329 KHZ

METAR / TAF
LICJ 181520Z 03007KT 9999 FEW025TCU 28/21 Q1015
LICJ 181100Z 1812/1912 03012KT 9999 SCT030 BECMG 1817/1819 VRB05KT BECMG 1908/1910 04012KT TEMPO 1909/1912 TSRA

RUNWAY INFORMATION

Runway Runway length Runway width Runway elevation Runway displaced threshold Runway heading
02 6804 148 42 10 24
20 6804 148 22 10 204
07 10912 197 33 404 66.9
25 10912 197 50 679 246.9

AIRPORT FREQUENCIES

Type Name Frequency
APP APP 120.2 MHZ
GND RAISI GND 121.625 MHZ
TWR RAISI TWR 119.05 MHZ

Flightplan

VFR

Air Sicilia Virtual Airways Fleets

AVAILABLE AIRCRAFTS for route at this time in Urbe Airport
BE58 - Beechcraft Baron 58
( US ) Beechcraft

Aircraft in fleet: 1

C172 - Cessna 172 Skyhawk
( US ) CESSNA

Aircraft in fleet: 1

228.588 NM

Distance in nautical miles.

€ 272,00

Ticket price for this flight.

0 h.

Estimated flight time.



07-08-2018
Aerosoft Professional Flight Planner PFPX

PFPX - Professional Flight Planner X - è un nuovo ed innovativo strumento di pianificazione del volo sviluppato da piloti e dispatcher del mondo reale. È un'aggiunta preziosa e realistica alla tua esperienza di simulaz ....


19-07-2018
Aerosoft Oslo X

L'Aeroporto di Oslo-Gardermoen (IATA: OSL, ICAO: ENGM) è il principale aeroporto norvegese e il 19° in Europa, è situato vicino alla cittadina di Ullensaker nella contea di Akershus e serve la capitale Oslo. Ha sostit ....


21-06-2018
Aerosoft Malpensa Professional P3Dv4

L'Aeroporto di Milano-Malpensa (IATA: MXP, ICAO: LIMC) è un aeroporto italiano situato nella provincia di Varese in Lombardia, ma considerato come il principale aeroporto di Milano.

È il secondo aeroporto ital ....


06-06-2018
1° Raduno Air Sicilia Virtual - parla il C.E.O.

Grande successo per il 1° Raduno di Compagnia dell'Air Sicilia Virtual, che ha visto i membri della Crew presenti il 4 giugno 2018 a Thiene ( VI ) , cimentarsi dal vivo con le reali ....


24-05-2018
Aerosoft Airport Rome XP

Tra le nostre recensioni non poteva mancare certo la nuova uscita Aerosoft per X-Plane, stiamo parlando di Airport Rome XP, finalmente un Add-on pay completo dell'Aeroporto di Roma Fiumicino per gli utilizzatori del simu ....